createdAt,value
2018-06-03T00:00:40.823Z,4.30
2018-06-03T00:05:34.117Z,4.80
2018-06-03T00:10:27.415Z,3.60
2018-06-03T00:15:21.470Z,3.90
2018-06-03T00:20:14.760Z,3.90
2018-06-03T00:25:08.062Z,4.93
2018-06-03T00:30:02.112Z,5.00
2018-06-03T00:34:55.413Z,3.97
2018-06-03T00:39:48.700Z,4.10
2018-06-03T00:44:42.771Z,3.60
2018-06-03T00:49:36.067Z,4.20
2018-06-03T00:54:29.363Z,3.43
2018-06-03T00:59:23.431Z,3.60
2018-06-03T01:04:16.749Z,4.90
2018-06-03T01:09:10.037Z,4.67
2018-06-03T01:14:03.335Z,3.63
2018-06-03T01:18:56.638Z,3.83
2018-06-03T01:24:23.699Z,4.67
2018-06-03T01:29:18.223Z,4.63
2018-06-03T01:34:12.787Z,4.33
2018-06-03T01:39:08.344Z,5.20
2018-06-03T01:44:02.931Z,4.47
2018-06-03T01:48:57.450Z,5.13
2018-06-03T01:53:51.988Z,4.53
2018-06-03T01:58:46.534Z,4.40
2018-06-03T02:03:41.112Z,4.40
2018-06-03T02:08:35.736Z,4.83
2018-06-03T02:13:30.271Z,4.63
2018-06-03T02:18:24.843Z,5.83
2018-06-03T02:23:19.366Z,5.03
2018-06-03T02:28:13.876Z,4.33
2018-06-03T02:33:08.395Z,4.30
2018-06-03T02:38:02.921Z,4.50
2018-06-03T02:42:57.475Z,5.03
2018-06-03T02:47:52.012Z,6.53
2018-06-03T02:52:46.563Z,4.73
2018-06-03T02:57:41.083Z,5.57
2018-06-03T03:02:35.590Z,5.43
2018-06-03T03:07:30.128Z,4.47
2018-06-03T03:12:24.676Z,5.33
2018-06-03T03:17:19.228Z,5.77
2018-06-03T03:22:13.788Z,5.40
2018-06-03T03:27:08.300Z,6.07
2018-06-03T03:32:02.831Z,5.03
2018-06-03T03:36:57.360Z,4.80
2018-06-03T03:41:51.986Z,5.07
2018-06-03T03:46:46.504Z,4.57
2018-06-03T03:51:41.043Z,4.40
2018-06-03T03:56:35.563Z,5.33
2018-06-03T04:01:30.092Z,5.53
2018-06-03T04:06:24.624Z,4.97
2018-06-03T04:11:19.199Z,5.13
2018-06-03T04:16:13.736Z,5.03
2018-06-03T04:21:08.292Z,5.27
2018-06-03T04:26:02.856Z,4.50
2018-06-03T04:30:57.378Z,5.00
2018-06-03T04:35:51.979Z,4.93
2018-06-03T04:40:46.533Z,5.37
2018-06-03T04:45:41.103Z,6.33
2018-06-03T04:50:35.653Z,5.67
2018-06-03T04:55:30.180Z,5.50
2018-06-03T05:00:24.710Z,4.97
2018-06-03T05:05:19.253Z,5.33
2018-06-03T05:10:13.805Z,5.30
2018-06-03T05:15:08.401Z,5.57
2018-06-03T05:20:03.007Z,6.73
2018-06-03T05:24:57.556Z,5.57
2018-06-03T05:29:52.071Z,6.20
2018-06-03T05:34:46.580Z,5.77
2018-06-03T05:39:41.115Z,5.40
2018-06-03T05:44:35.676Z,4.57
2018-06-03T05:49:30.711Z,5.63
2018-06-03T05:54:25.259Z,4.30
2018-06-03T05:59:19.824Z,5.63
2018-06-03T06:04:14.069Z,4.93
2018-06-03T06:09:08.642Z,5.43
2018-06-03T06:14:03.219Z,5.57
2018-06-03T06:18:57.762Z,4.43
2018-06-03T06:23:52.307Z,4.73
2018-06-03T06:28:46.840Z,7.10
2018-06-03T06:33:41.346Z,6.40
2018-06-03T06:38:35.921Z,5.60
2018-06-03T06:43:30.503Z,4.73
2018-06-03T06:48:25.038Z,5.07
2018-06-03T06:53:19.598Z,4.50
2018-06-03T06:58:14.216Z,6.93
2018-06-03T07:03:08.805Z,5.63
2018-06-03T07:08:03.339Z,5.87
2018-06-03T07:12:57.881Z,5.23
2018-06-03T07:17:52.423Z,5.60
2018-06-03T07:22:46.987Z,4.10
2018-06-03T07:27:41.511Z,4.10
2018-06-03T07:32:36.060Z,5.17
2018-06-03T07:37:30.626Z,3.70
2018-06-03T07:42:25.187Z,4.17
2018-06-03T07:47:19.738Z,6.70
2018-06-03T07:52:14.354Z,4.30
2018-06-03T07:57:08.854Z,4.83
2018-06-03T08:02:03.417Z,3.97
2018-06-03T08:06:57.947Z,4.78
2018-06-03T08:11:52.514Z,5.95
2018-06-03T08:16:47.075Z,4.58
2018-06-03T08:21:41.615Z,4.30
2018-06-03T08:26:36.179Z,3.65
2018-06-03T08:31:30.747Z,4.30
2018-06-03T08:36:25.309Z,4.30
2018-06-03T08:41:19.853Z,4.15
2018-06-03T08:46:14.455Z,3.62
2018-06-03T08:51:09.030Z,3.35
2018-06-03T08:56:03.591Z,3.62
2018-06-03T09:00:58.143Z,3.87
2018-06-03T09:05:52.976Z,5.67
2018-06-03T09:10:47.522Z,4.30
2018-06-03T09:15:42.146Z,3.77
2018-06-03T09:20:36.739Z,4.37
2018-06-03T09:25:32.207Z,3.85
2018-06-03T09:30:26.811Z,7.05
2018-06-03T09:35:21.347Z,5.37
2018-06-03T09:40:15.916Z,5.20
2018-06-03T09:45:10.499Z,3.92
2018-06-03T09:50:05.131Z,3.72
2018-06-03T09:54:59.683Z,3.08
2018-06-03T09:59:54.241Z,4.70
2018-06-03T10:04:48.784Z,3.77
2018-06-03T10:09:43.391Z,3.60
2018-06-03T10:14:38.121Z,4.55
2018-06-03T10:19:32.679Z,3.22
2018-06-03T10:24:27.260Z,3.40
2018-06-03T10:29:21.815Z,3.05
2018-06-03T10:34:16.399Z,2.98
2018-06-03T10:39:10.957Z,2.77
2018-06-03T10:44:05.607Z,3.62
2018-06-03T10:49:00.227Z,3.22
2018-06-03T10:53:54.859Z,2.60
2018-06-03T10:58:49.407Z,3.83
2018-06-03T11:03:44.629Z,2.70
2018-06-03T11:08:39.207Z,2.25
2018-06-03T11:13:33.801Z,2.52
2018-06-03T11:18:28.388Z,2.60
2018-06-03T11:23:23.006Z,3.20
2018-06-03T11:28:17.590Z,3.00
2018-06-03T11:33:12.171Z,2.87
2018-06-03T11:38:06.769Z,2.70
2018-06-03T11:43:01.017Z,2.50
2018-06-03T11:47:55.558Z,2.62
2018-06-03T11:52:50.137Z,2.20
2018-06-03T11:58:55.930Z,2.30
2018-06-03T12:03:50.539Z,3.45
2018-06-03T12:08:45.108Z,3.67
2018-06-03T12:13:39.784Z,1.80
2018-06-03T12:18:34.429Z,2.72
2018-06-03T12:23:29.273Z,1.92
2018-06-03T12:28:23.835Z,2.37
2018-06-03T12:33:18.404Z,2.47
2018-06-03T12:38:13.004Z,1.80
2018-06-03T12:43:07.692Z,2.08
2018-06-03T12:48:02.306Z,1.98
2018-06-03T12:52:56.935Z,2.75
2018-06-03T12:57:51.545Z,2.10
2018-06-03T13:02:46.100Z,3.05
2018-06-03T13:07:40.673Z,2.20
2018-06-03T13:12:35.568Z,2.30
2018-06-03T13:17:30.138Z,1.95
2018-06-03T13:22:24.725Z,2.33
2018-06-03T13:27:19.313Z,2.55
2018-06-03T13:32:13.875Z,2.40
2018-06-03T13:37:08.516Z,2.00
2018-06-03T13:42:03.123Z,2.22
2018-06-03T13:46:57.715Z,2.80
2018-06-03T13:51:52.592Z,2.12
2018-06-03T13:56:47.139Z,3.87
2018-06-03T14:01:41.715Z,3.00
2018-06-03T14:06:36.299Z,2.25
2018-06-03T14:11:31.640Z,2.12
2018-06-03T14:16:26.323Z,1.90
2018-06-03T14:21:20.882Z,3.22
2018-06-03T14:26:15.434Z,2.20
2018-06-03T14:31:10.002Z,2.15
2018-06-03T14:36:04.593Z,1.80
2018-06-03T14:40:59.133Z,2.22
2018-06-03T14:45:53.695Z,2.30
2018-06-03T14:50:48.300Z,2.22
2018-06-03T14:55:42.847Z,3.05
2018-06-03T15:00:37.395Z,2.12
2018-06-03T15:05:31.971Z,1.95
2018-06-03T15:10:26.568Z,3.17
2018-06-03T15:15:21.184Z,2.20
2018-06-03T15:20:15.958Z,2.15
2018-06-03T15:25:10.539Z,2.40
2018-06-03T15:30:05.223Z,2.08
2018-06-03T15:34:59.815Z,2.25
2018-06-03T15:39:54.395Z,2.75
2018-06-03T15:44:48.918Z,2.30
2018-06-03T15:49:43.447Z,2.22
2018-06-03T15:54:38.024Z,2.17
2018-06-03T15:59:32.599Z,2.45
2018-06-03T16:04:26.873Z,2.17
2018-06-03T16:09:21.455Z,2.87
2018-06-03T16:14:16.031Z,2.30
2018-06-03T16:19:10.733Z,2.33
2018-06-03T16:24:05.393Z,2.12
2018-06-03T16:28:59.975Z,2.30
2018-06-03T16:33:54.547Z,2.80
2018-06-03T16:38:49.079Z,4.53
2018-06-03T16:43:43.656Z,2.35
2018-06-03T16:48:38.234Z,3.92
2018-06-03T16:53:32.820Z,2.60
2018-06-03T16:58:27.408Z,2.98
2018-06-03T17:03:22.013Z,2.65
2018-06-03T17:08:16.634Z,2.45
2018-06-03T17:13:11.215Z,4.83
2018-06-03T17:18:05.858Z,2.50
2018-06-03T17:23:00.436Z,3.00
2018-06-03T17:27:55.046Z,2.70
2018-06-03T17:32:49.639Z,2.90
2018-06-03T17:37:44.205Z,3.22
2018-06-03T17:42:38.779Z,3.55
2018-06-03T17:47:33.350Z,3.17
2018-06-03T17:52:27.945Z,3.47
2018-06-03T17:57:22.552Z,1.90
2018-06-03T18:02:17.147Z,3.22
2018-06-03T18:07:11.712Z,2.30
2018-06-03T18:12:06.464Z,2.60
2018-06-03T18:17:01.090Z,3.40
2018-06-03T18:21:55.635Z,2.22
2018-06-03T18:26:50.203Z,2.85
2018-06-03T18:31:46.153Z,3.92
2018-06-03T18:36:40.440Z,2.72
2018-06-03T18:41:34.776Z,1.98
2018-06-03T18:46:29.453Z,2.40
2018-06-03T18:51:24.048Z,3.15
2018-06-03T18:56:18.683Z,2.17
2018-06-03T19:01:12.943Z,3.30
2018-06-03T19:06:07.575Z,2.70
2018-06-03T19:11:02.166Z,3.52
2018-06-03T19:15:56.868Z,3.60
2018-06-03T19:20:51.452Z,4.80
2018-06-03T19:25:45.992Z,2.33
2018-06-03T19:30:40.789Z,3.55
2018-06-03T19:35:35.401Z,3.37
2018-06-03T19:40:30.196Z,2.85
2018-06-03T19:45:24.815Z,2.47
2018-06-03T19:50:19.421Z,2.60
2018-06-03T19:55:14.037Z,2.70
2018-06-03T20:00:08.727Z,2.40
2018-06-03T20:05:03.390Z,2.35
2018-06-03T20:09:57.966Z,2.55
2018-06-03T20:14:52.563Z,2.80
2018-06-03T20:19:47.193Z,2.98
2018-06-03T20:24:41.503Z,2.90
2018-06-03T20:29:36.124Z,2.80
2018-06-03T20:34:30.906Z,2.30
